createdAt,value
2017-02-09T00:00:04.866Z,962.38
2017-02-09T00:02:29.861Z,962.41
2017-02-09T00:04:42.121Z,962.39
2017-02-09T00:06:59.224Z,962.39
2017-02-09T00:09:11.650Z,962.36
2017-02-09T00:11:23.923Z,962.42
2017-02-09T00:13:36.218Z,962.39
2017-02-09T00:15:48.460Z,962.39
2017-02-09T00:18:00.800Z,962.39
2017-02-09T00:20:12.983Z,962.4
2017-02-09T00:22:25.359Z,962.39
2017-02-09T00:24:37.671Z,962.37
2017-02-09T00:26:50.230Z,962.42
2017-02-09T00:29:02.390Z,962.44
2017-02-09T00:31:14.664Z,962.43
2017-02-09T00:33:26.975Z,962.37
2017-02-09T00:35:39.250Z,962.41
2017-02-09T00:37:51.545Z,962.4
2017-02-09T00:40:03.771Z,962.4
2017-02-09T00:42:10.960Z,962.4
2017-02-09T00:44:23.344Z,962.43
2017-02-09T00:46:35.686Z,962.43
2017-02-09T00:48:47.977Z,962.43
2017-02-09T00:51:00.169Z,962.44
2017-02-09T00:53:12.307Z,962.44
2017-02-09T00:55:24.552Z,962.43
2017-02-09T00:57:36.797Z,962.47
2017-02-09T00:59:49.216Z,962.44
2017-02-09T01:02:01.675Z,962.46
2017-02-09T01:04:13.851Z,962.43
2017-02-09T01:06:26.237Z,962.48
2017-02-09T01:08:38.491Z,962.46
2017-02-09T01:10:50.700Z,962.49
2017-02-09T01:13:02.938Z,962.49
2017-02-09T01:15:15.116Z,962.49
2017-02-09T01:17:27.445Z,962.51
2017-02-09T01:19:39.661Z,962.52
2017-02-09T01:21:46.950Z,962.51
2017-02-09T01:23:59.245Z,962.5
2017-02-09T01:26:11.457Z,962.48
2017-02-09T01:28:23.689Z,962.45
2017-02-09T01:30:35.925Z,962.43
2017-02-09T01:32:48.278Z,962.5
2017-02-09T01:35:00.919Z,962.49
2017-02-09T01:37:13.487Z,962.43
2017-02-09T01:39:25.888Z,962.4
2017-02-09T01:41:38.174Z,962.37
2017-02-09T01:43:50.670Z,962.38
2017-02-09T01:46:02.901Z,962.33
2017-02-09T01:48:15.209Z,962.34
2017-02-09T01:50:22.607Z,962.3
2017-02-09T01:52:29.939Z,962.28
2017-02-09T01:54:42.337Z,962.26
2017-02-09T01:56:54.582Z,962.28
2017-02-09T01:59:06.891Z,962.28
2017-02-09T02:01:19.101Z,962.28
2017-02-09T02:03:31.293Z,962.32
2017-02-09T02:05:43.479Z,962.27
2017-02-09T02:07:56.222Z,962.28
2017-02-09T02:10:08.795Z,962.23
2017-02-09T02:12:21.089Z,962.24
2017-02-09T02:14:33.401Z,962.25
2017-02-09T02:16:45.845Z,962.23
2017-02-09T02:18:58.194Z,962.25
2017-02-09T02:21:10.634Z,962.26
2017-02-09T02:23:22.818Z,962.27
2017-02-09T02:25:35.026Z,962.26
2017-02-09T02:27:47.319Z,962.26
2017-02-09T02:29:59.519Z,962.27
2017-02-09T02:32:11.827Z,962.22
2017-02-09T02:34:24.178Z,962.22
2017-02-09T02:36:36.552Z,962.22
2017-02-09T02:38:48.751Z,962.17
2017-02-09T02:41:01.005Z,962.16
2017-02-09T02:43:13.658Z,962.12
2017-02-09T02:45:26.283Z,962.11
2017-02-09T02:47:38.589Z,962.12
2017-02-09T02:49:50.815Z,962.1
2017-02-09T02:52:03.184Z,962.13
2017-02-09T02:54:15.623Z,962.12
2017-02-09T02:56:28.029Z,962.15
2017-02-09T02:58:40.276Z,962.13
2017-02-09T03:00:52.849Z,962.16
2017-02-09T03:03:05.132Z,962.12
2017-02-09T03:05:17.476Z,962.12
2017-02-09T03:07:29.694Z,962.11
2017-02-09T03:09:41.826Z,962.14
2017-02-09T03:11:54.110Z,962.19
2017-02-09T03:14:06.275Z,962.2
2017-02-09T03:16:18.417Z,962.16
2017-02-09T03:18:30.814Z,962.18
2017-02-09T03:20:38.572Z,962.2
2017-02-09T03:22:50.903Z,962.17
2017-02-09T03:24:58.245Z,962.15
2017-02-09T03:27:10.640Z,962.17
2017-02-09T03:29:22.933Z,962.17
2017-02-09T03:31:35.111Z,962.16
2017-02-09T03:33:42.522Z,962.18
2017-02-09T03:35:54.813Z,962.16
2017-02-09T03:38:07.924Z,962.19
2017-02-09T03:40:20.202Z,962.2
2017-02-09T03:42:32.383Z,962.2
2017-02-09T03:44:44.847Z,962.16
2017-02-09T03:46:57.135Z,962.22
2017-02-09T03:49:09.444Z,962.21
2017-02-09T03:51:21.914Z,962.21
2017-02-09T03:53:45.886Z,962.16
2017-02-09T03:55:58.436Z,962.18
2017-02-09T03:58:10.884Z,962.16
2017-02-09T04:00:23.158Z,962.19
2017-02-09T04:02:35.334Z,962.14
2017-02-09T04:04:47.581Z,962.19
2017-02-09T04:06:59.880Z,962.18
2017-02-09T04:09:12.149Z,962.19
2017-02-09T04:11:24.419Z,962.17
2017-02-09T04:13:36.836Z,962.18
2017-02-09T04:15:49.286Z,962.14
2017-02-09T04:18:01.558Z,962.15
2017-02-09T04:20:13.856Z,962.12
2017-02-09T04:22:26.225Z,962.17
2017-02-09T04:24:38.446Z,962.12
2017-02-09T04:26:50.662Z,962.16
2017-02-09T04:29:03.390Z,962.05
2017-02-09T04:31:15.621Z,962.06
2017-02-09T04:33:27.943Z,962.03
2017-02-09T04:35:40.290Z,962.03
2017-02-09T04:37:52.593Z,962.06
2017-02-09T04:39:59.984Z,962
2017-02-09T04:42:12.161Z,961.99
2017-02-09T04:44:24.432Z,961.97
2017-02-09T04:46:36.649Z,961.91
2017-02-09T04:48:49.007Z,961.96
2017-02-09T04:51:01.291Z,961.92
2017-02-09T04:53:13.643Z,961.9
2017-02-09T04:55:25.976Z,961.86
2017-02-09T04:57:38.268Z,961.89
2017-02-09T04:59:50.491Z,961.9
2017-02-09T05:02:02.862Z,961.9
2017-02-09T05:04:10.705Z,961.89
2017-02-09T05:06:23.124Z,961.91
2017-02-09T05:08:35.718Z,961.89
2017-02-09T05:10:48.076Z,961.87
2017-02-09T05:13:00.322Z,961.89
2017-02-09T05:15:12.604Z,961.85
2017-02-09T05:17:24.907Z,961.86
2017-02-09T05:19:37.190Z,961.89
2017-02-09T05:21:44.431Z,961.89
2017-02-09T05:23:56.920Z,961.87
2017-02-09T05:26:09.350Z,961.86
2017-02-09T05:28:21.659Z,961.85
2017-02-09T05:30:34.106Z,961.89
2017-02-09T05:32:46.522Z,961.84
2017-02-09T05:34:59.000Z,961.89
2017-02-09T05:37:11.430Z,961.93
2017-02-09T05:39:23.885Z,961.92
2017-02-09T05:41:37.067Z,961.91
2017-02-09T05:43:49.557Z,961.88
2017-02-09T05:46:01.912Z,961.86
2017-02-09T05:48:14.131Z,961.87
2017-02-09T05:50:26.534Z,961.95
2017-02-09T05:52:38.748Z,961.99
2017-02-09T05:54:51.050Z,961.99
2017-02-09T05:57:03.368Z,961.98
2017-02-09T05:59:15.610Z,961.9
2017-02-09T06:01:27.988Z,961.9
2017-02-09T06:03:40.397Z,961.84
2017-02-09T06:05:52.845Z,961.88
2017-02-09T06:08:05.096Z,961.9
2017-02-09T06:10:17.501Z,961.85
2017-02-09T06:12:24.870Z,961.87
2017-02-09T06:14:37.149Z,961.81
2017-02-09T06:16:44.421Z,961.84
2017-02-09T06:18:56.918Z,961.84
2017-02-09T06:21:09.227Z,961.85
2017-02-09T06:23:21.421Z,961.89
2017-02-09T06:25:33.773Z,961.9
2017-02-09T06:27:46.173Z,961.88
2017-02-09T06:29:59.288Z,961.83
2017-02-09T06:32:11.581Z,961.82
2017-02-09T06:34:23.861Z,961.89
2017-02-09T06:36:36.260Z,961.92
2017-02-09T06:38:48.561Z,961.89
2017-02-09T06:41:00.995Z,961.95
2017-02-09T06:43:13.357Z,961.96
2017-02-09T06:45:20.665Z,961.95
2017-02-09T06:47:32.960Z,961.92
2017-02-09T06:49:45.240Z,961.96
2017-02-09T06:51:47.743Z,961.89
2017-02-09T06:54:00.426Z,961.91
2017-02-09T06:56:12.743Z,961.94
2017-02-09T06:58:25.149Z,961.86
2017-02-09T07:00:32.661Z,961.86
2017-02-09T07:02:45.221Z,961.86
2017-02-09T07:04:57.413Z,961.84
2017-02-09T07:07:09.712Z,961.85
2017-02-09T07:09:22.033Z,961.85
2017-02-09T07:11:34.481Z,961.84
2017-02-09T07:13:46.858Z,961.8
2017-02-09T07:15:59.232Z,961.81
2017-02-09T07:18:11.615Z,961.81
2017-02-09T07:20:24.166Z,961.76
2017-02-09T07:22:36.507Z,961.84
2017-02-09T07:24:48.908Z,961.76
2017-02-09T07:27:01.148Z,961.78
2017-02-09T07:29:13.800Z,961.77
2017-02-09T07:31:26.281Z,961.78
2017-02-09T07:33:38.490Z,961.74
2017-02-09T07:35:51.632Z,961.66
2017-02-09T07:38:03.937Z,961.66
2017-02-09T07:40:16.267Z,961.66
2017-02-09T07:42:28.744Z,961.67
2017-02-09T07:44:40.973Z,961.65
2017-02-09T07:46:53.477Z,961.61
2017-02-09T07:49:05.999Z,961.6
2017-02-09T07:51:18.301Z,961.63
2017-02-09T07:53:25.689Z,961.67
2017-02-09T07:55:38.031Z,961.64
2017-02-09T07:57:50.523Z,961.66
2017-02-09T08:00:02.898Z,961.63
2017-02-09T08:02:15.247Z,961.61
2017-02-09T08:04:27.855Z,961.63
2017-02-09T08:06:40.141Z,961.65
2017-02-09T08:08:52.345Z,961.66
2017-02-09T08:11:04.537Z,961.65
2017-02-09T08:13:11.998Z,961.63
2017-02-09T08:15:24.386Z,961.66
2017-02-09T08:17:31.820Z,961.62
2017-02-09T08:19:44.440Z,961.59
2017-02-09T08:21:56.783Z,961.54
2017-02-09T08:24:09.042Z,961.51
2017-02-09T08:26:21.852Z,961.45
2017-02-09T08:28:34.190Z,961.46
2017-02-09T08:30:46.581Z,961.42
2017-02-09T08:32:53.922Z,961.45
2017-02-09T08:35:06.225Z,961.44
2017-02-09T08:37:18.439Z,961.44
2017-02-09T08:39:25.920Z,961.36
2017-02-09T08:41:38.241Z,961.36
2017-02-09T08:43:50.681Z,961.3
2017-02-09T08:46:03.910Z,961.31
2017-02-09T08:48:16.545Z,961.36
2017-02-09T08:50:28.892Z,961.32
2017-02-09T08:52:41.423Z,961.3
2017-02-09T08:54:53.825Z,961.34
2017-02-09T08:57:07.071Z,961.29
2017-02-09T08:59:19.554Z,961.32
2017-02-09T09:01:32.048Z,961.34
2017-02-09T09:03:44.367Z,961.3
2017-02-09T09:05:56.786Z,961.34
2017-02-09T09:08:09.139Z,961.23
2017-02-09T09:10:21.465Z,961.2
2017-02-09T09:12:33.951Z,961.15
2017-02-09T09:14:46.365Z,961.14
2017-02-09T09:16:53.769Z,961.08
2017-02-09T09:19:06.516Z,961.09
2017-02-09T09:21:13.747Z,961.14
2017-02-09T09:23:26.146Z,961.07
2017-02-09T09:25:38.433Z,961.1
2017-02-09T09:27:45.757Z,961.09
2017-02-09T09:29:57.953Z,961.12
2017-02-09T09:32:10.220Z,961.12
2017-02-09T09:34:22.670Z,961.16
2017-02-09T09:36:29.938Z,961.14
2017-02-09T09:38:42.358Z,961.11
2017-02-09T09:40:49.865Z,961.08
2017-02-09T09:43:02.145Z,961.06
2017-02-09T09:45:14.359Z,961.06
2017-02-09T09:47:26.557Z,961.02
2017-02-09T09:49:38.831Z,961
2017-02-09T09:51:51.129Z,960.96
2017-02-09T09:54:03.616Z,960.99
2017-02-09T09:56:16.013Z,961
2017-02-09T09:58:23.529Z,960.95
2017-02-09T10:00:35.729Z,960.94
2017-02-09T10:02:47.919Z,960.91
2017-02-09T10:05:00.354Z,960.86
2017-02-09T10:07:12.508Z,960.86
2017-02-09T10:09:19.746Z,960.86
2017-02-09T10:11:26.971Z,960.89
2017-02-09T10:13:39.199Z,960.9
2017-02-09T10:15:51.445Z,960.83
2017-02-09T10:18:03.772Z,960.83
2017-02-09T10:20:11.098Z,960.79
2017-02-09T10:22:23.500Z,960.71
2017-02-09T10:24:35.885Z,960.68
2017-02-09T10:26:48.328Z,960.7
2017-02-09T10:29:00.844Z,960.75
2017-02-09T10:31:13.270Z,960.74
2017-02-09T10:33:25.458Z,960.63
2017-02-09T10:35:37.781Z,960.63
2017-02-09T10:37:50.081Z,960.63
2017-02-09T10:40:02.266Z,960.6
2017-02-09T10:42:09.554Z,960.54
2017-02-09T10:44:21.769Z,960.54
2017-02-09T10:46:33.929Z,960.53
2017-02-09T10:48:46.266Z,960.51
2017-02-09T10:50:58.412Z,960.44
2017-02-09T10:53:10.717Z,960.39
2017-02-09T10:55:23.017Z,960.4
2017-02-09T10:57:35.322Z,960.38
2017-02-09T10:59:47.511Z,960.28
2017-02-09T11:01:59.880Z,960.29
2017-02-09T11:04:07.269Z,960.28
2017-02-09T11:06:19.404Z,960.3
2017-02-09T11:08:26.679Z,960.3
2017-02-09T11:10:39.039Z,960.27
2017-02-09T11:12:51.247Z,960.27
2017-02-09T11:15:03.435Z,960.25
2017-02-09T11:17:18.055Z,960.21
2017-02-09T11:19:35.512Z,960.23
2017-02-09T11:21:56.209Z,960.22
2017-02-09T11:24:16.117Z,960.29
2017-02-09T11:26:28.357Z,960.3
2017-02-09T11:28:40.577Z,960.26
2017-02-09T11:30:53.097Z,960.25
2017-02-09T11:33:05.226Z,960.27
2017-02-09T11:35:17.476Z,960.26
2017-02-09T11:37:29.667Z,960.21
2017-02-09T11:39:42.008Z,960.22
2017-02-09T11:41:54.691Z,960.13
2017-02-09T11:44:07.036Z,960.17
2017-02-09T11:46:19.325Z,960.16
2017-02-09T11:48:31.737Z,960.14
2017-02-09T11:50:44.073Z,960.11
2017-02-09T11:52:56.313Z,960.07
2017-02-09T11:55:08.527Z,959.96
2017-02-09T11:57:20.989Z,959.83
2017-02-09T11:59:33.450Z,959.83
2017-02-09T12:01:40.958Z,959.89
2017-02-09T12:03:48.341Z,959.79
2017-02-09T12:06:00.604Z,959.77
2017-02-09T12:08:13.052Z,959.74
2017-02-09T12:10:25.791Z,959.76
2017-02-09T12:12:38.623Z,959.73
2017-02-09T12:14:50.918Z,959.84
2017-02-09T12:17:03.251Z,959.71
2017-02-09T12:19:15.738Z,959.74
2017-02-09T12:21:23.112Z,959.71
2017-02-09T12:23:35.448Z,959.71
2017-02-09T12:25:47.766Z,959.74
2017-02-09T12:27:54.993Z,959.77
2017-02-09T12:30:08.496Z,959.69
2017-02-09T12:32:22.918Z,959.7
2017-02-09T12:34:36.890Z,959.73
2017-02-09T12:36:51.198Z,959.69
2017-02-09T12:39:04.761Z,959.66
2017-02-09T12:41:17.655Z,959.59
2017-02-09T12:43:28.443Z,959.65
2017-02-09T12:45:41.807Z,959.64
2017-02-09T12:47:54.126Z,959.68
2017-02-09T12:50:06.496Z,959.64
2017-02-09T12:52:18.847Z,959.65
2017-02-09T12:54:31.352Z,959.59
2017-02-09T12:56:43.872Z,959.59
2017-02-09T12:58:56.420Z,959.61
2017-02-09T13:01:08.861Z,959.61
2017-02-09T13:03:21.211Z,959.6
2017-02-09T13:05:33.535Z,959.5
2017-02-09T13:07:46.085Z,959.55
2017-02-09T13:09:58.416Z,959.53
2017-02-09T13:12:10.809Z,959.44
2017-02-09T13:14:18.228Z,959.43
2017-02-09T13:16:30.515Z,959.4
2017-02-09T13:18:42.917Z,959.43
2017-02-09T13:20:55.397Z,959.41
2017-02-09T13:23:07.684Z,959.46
2017-02-09T13:25:20.104Z,959.41
2017-02-09T13:27:32.533Z,959.42
2017-02-09T13:29:45.180Z,959.44
2017-02-09T13:31:57.564Z,959.45
2017-02-09T13:34:09.820Z,959.48
2017-02-09T13:36:22.120Z,959.44
2017-02-09T13:38:34.576Z,959.44
2017-02-09T13:40:41.883Z,959.46
2017-02-09T13:42:54.472Z,959.48
2017-02-09T13:45:06.838Z,959.51
2017-02-09T13:47:19.150Z,959.53
2017-02-09T13:49:31.577Z,959.57
2017-02-09T13:51:43.990Z,959.54
2017-02-09T13:53:56.391Z,959.54
2017-02-09T13:56:08.712Z,959.57
2017-02-09T13:58:20.995Z,959.58
2017-02-09T14:00:33.407Z,959.52
2017-02-09T14:02:40.726Z,959.51
2017-02-09T14:04:53.181Z,959.54
2017-02-09T14:07:05.474Z,959.5
2017-02-09T14:09:17.600Z,959.48
2017-02-09T14:11:29.919Z,959.46
2017-02-09T14:13:37.406Z,959.46
2017-02-09T14:15:49.611Z,959.42
2017-02-09T14:18:01.772Z,959.47
2017-02-09T14:20:13.994Z,959.41
2017-02-09T14:22:26.270Z,959.44
2017-02-09T14:24:38.420Z,959.42
2017-02-09T14:26:50.686Z,959.41
2017-02-09T14:29:02.850Z,959.41
2017-02-09T14:31:15.129Z,959.34
2017-02-09T14:33:27.508Z,959.36
2017-02-09T14:35:39.784Z,959.44
2017-02-09T14:37:52.044Z,959.49
2017-02-09T14:40:04.249Z,959.5
2017-02-09T14:42:11.548Z,959.47
2017-02-09T14:44:23.930Z,959.45
2017-02-09T14:46:36.212Z,959.41
2017-02-09T14:48:48.558Z,959.34
2017-02-09T14:50:56.067Z,959.36
2017-02-09T14:53:03.527Z,959.31
2017-02-09T14:55:16.156Z,959.29
2017-02-09T14:57:28.465Z,959.32
2017-02-09T14:59:35.771Z,959.35
2017-02-09T15:01:47.990Z,959.38
2017-02-09T15:04:00.483Z,959.39
2017-02-09T15:06:12.933Z,959.43
2017-02-09T15:08:26.978Z,959.45
2017-02-09T15:10:39.211Z,959.46
2017-02-09T15:12:51.652Z,959.41
2017-02-09T15:15:03.994Z,959.42
2017-02-09T15:17:16.338Z,959.42
2017-02-09T15:19:28.698Z,959.36
2017-02-09T15:21:41.060Z,959.39
2017-02-09T15:23:53.384Z,959.43
2017-02-09T15:26:05.620Z,959.43
2017-02-09T15:28:12.897Z,959.44
2017-02-09T15:30:25.596Z,959.42
2017-02-09T15:32:33.048Z,959.41
2017-02-09T15:34:45.293Z,959.37
2017-02-09T15:36:57.553Z,959.38
2017-02-09T15:39:09.992Z,959.45
2017-02-09T15:41:22.335Z,959.47
2017-02-09T15:43:34.765Z,959.47
2017-02-09T15:45:42.053Z,959.51
2017-02-09T15:47:54.378Z,959.51
2017-02-09T15:50:06.660Z,959.5
2017-02-09T15:52:19.067Z,959.42
2017-02-09T15:54:31.297Z,959.39
2017-02-09T15:56:43.517Z,959.36
2017-02-09T15:58:55.850Z,959.37
2017-02-09T16:01:08.176Z,959.38
2017-02-09T16:03:20.598Z,959.38
2017-02-09T16:05:33.656Z,959.36
2017-02-09T16:07:45.944Z,959.37
2017-02-09T16:09:58.427Z,959.43
2017-02-09T16:12:10.911Z,959.47
2017-02-09T16:14:23.169Z,959.51
2017-02-09T16:16:35.531Z,959.48
2017-02-09T16:18:42.787Z,959.46
2017-02-09T16:20:55.035Z,959.5
2017-02-09T16:23:07.228Z,959.5
2017-02-09T16:25:19.484Z,959.55
2017-02-09T16:27:31.889Z,959.53
2017-02-09T16:29:44.142Z,959.57
2017-02-09T16:31:56.342Z,959.57
2017-02-09T16:34:08.643Z,959.53
2017-02-09T16:36:21.001Z,959.57
2017-02-09T16:38:34.086Z,959.58
2017-02-09T16:40:46.421Z,959.61
2017-02-09T16:42:58.804Z,959.58
2017-02-09T16:45:11.120Z,959.6
2017-02-09T16:47:23.368Z,959.62
2017-02-09T16:49:30.743Z,959.62
2017-02-09T16:51:43.041Z,959.67
2017-02-09T16:53:55.445Z,959.69
2017-02-09T16:56:07.988Z,959.71
2017-02-09T16:58:20.484Z,959.74
2017-02-09T17:00:33.095Z,959.68
2017-02-09T17:02:45.546Z,959.68
2017-02-09T17:04:57.859Z,959.69
2017-02-09T17:07:10.116Z,959.66
2017-02-09T17:09:22.327Z,959.71
2017-02-09T17:11:34.694Z,959.72
2017-02-09T17:13:47.031Z,959.72
2017-02-09T17:15:59.249Z,959.75
2017-02-09T17:18:11.560Z,959.78
2017-02-09T17:20:18.989Z,959.72
2017-02-09T17:22:31.471Z,959.71
2017-02-09T17:24:43.913Z,959.74
2017-02-09T17:26:56.358Z,959.71
2017-02-09T17:29:08.689Z,959.77
2017-02-09T17:31:21.444Z,959.64
2017-02-09T17:33:33.949Z,959.7
2017-02-09T17:35:46.181Z,959.66
2017-02-09T17:37:53.623Z,959.62
2017-02-09T17:40:06.174Z,959.62
2017-02-09T17:42:18.582Z,959.52
2017-02-09T17:44:30.879Z,959.56
2017-02-09T17:46:43.304Z,959.56
2017-02-09T17:48:55.646Z,959.59
2017-02-09T17:51:08.009Z,959.49
2017-02-09T17:53:20.327Z,959.51
2017-02-09T17:55:27.670Z,959.46
2017-02-09T17:57:40.013Z,959.48
2017-02-09T17:59:52.344Z,959.54
2017-02-09T18:02:04.675Z,959.5
2017-02-09T18:04:16.818Z,959.44
2017-02-09T18:06:29.334Z,959.46
2017-02-09T18:08:41.532Z,959.44
2017-02-09T18:10:53.849Z,959.47
2017-02-09T18:13:07.175Z,959.47
2017-02-09T18:15:19.564Z,959.41
2017-02-09T18:17:31.942Z,959.39
2017-02-09T18:19:44.219Z,959.37
2017-02-09T18:21:51.523Z,959.35
2017-02-09T18:24:03.930Z,959.27
2017-02-09T18:26:16.272Z,959.26
2017-02-09T18:28:23.895Z,959.26
2017-02-09T18:30:31.558Z,959.25
2017-02-09T18:32:43.878Z,959.23
2017-02-09T18:34:56.291Z,959.16
2017-02-09T18:37:08.778Z,959.22
2017-02-09T18:39:21.220Z,959.2
2017-02-09T18:41:33.654Z,959.21
2017-02-09T18:43:46.148Z,959.12
2017-02-09T18:45:58.527Z,959.13
2017-02-09T18:48:10.926Z,959.1
2017-02-09T18:50:23.354Z,959.09
2017-02-09T18:52:35.711Z,959.06
2017-02-09T18:54:48.048Z,959.06
2017-02-09T18:57:00.476Z,959.08
2017-02-09T18:59:12.758Z,959.06
2017-02-09T19:01:24.991Z,959.03
2017-02-09T19:03:37.438Z,959.02
2017-02-09T19:05:49.742Z,959.04
2017-02-09T19:08:01.983Z,959.08
2017-02-09T19:10:14.414Z,959.02
2017-02-09T19:12:27.095Z,959.08
2017-02-09T19:14:39.393Z,959.05
2017-02-09T19:16:51.618Z,959.07
2017-02-09T19:18:58.856Z,959.03
2017-02-09T19:21:11.052Z,959.01
2017-02-09T19:23:23.257Z,958.98
2017-02-09T19:25:35.573Z,958.95
2017-02-09T19:27:47.941Z,958.92
2017-02-09T19:30:00.200Z,958.92
2017-02-09T19:32:12.602Z,958.91
2017-02-09T19:34:25.141Z,958.97
2017-02-09T19:36:37.453Z,958.93
2017-02-09T19:38:49.723Z,958.92
2017-02-09T19:41:02.074Z,958.94
2017-02-09T19:43:14.339Z,958.88
2017-02-09T19:45:26.871Z,958.87
2017-02-09T19:47:39.443Z,958.91
2017-02-09T19:49:46.980Z,958.92
2017-02-09T19:51:59.715Z,958.88
2017-02-09T19:54:12.013Z,958.84
2017-02-09T19:56:24.629Z,958.84
2017-02-09T19:58:37.098Z,958.84
2017-02-09T20:00:49.554Z,958.86
2017-02-09T20:03:01.972Z,958.81
2017-02-09T20:05:14.284Z,958.8
2017-02-09T20:07:21.890Z,958.8
2017-02-09T20:09:34.157Z,958.8
2017-02-09T20:11:46.438Z,958.76
2017-02-09T20:13:59.709Z,958.79
2017-02-09T20:16:17.508Z,958.78
2017-02-09T20:18:41.817Z,958.8
2017-02-09T20:20:54.410Z,958.75
2017-02-09T20:23:06.982Z,958.73
2017-02-09T20:25:19.662Z,958.68
2017-02-09T20:27:32.122Z,958.61
2017-02-09T20:29:44.671Z,958.59
2017-02-09T20:31:57.220Z,958.6
2017-02-09T20:34:09.833Z,958.59
2017-02-09T20:36:22.271Z,958.58
2017-02-09T20:38:34.515Z,958.56
2017-02-09T20:40:47.101Z,958.58
2017-02-09T20:42:59.422Z,958.57
2017-02-09T20:45:11.709Z,958.53
2017-02-09T20:47:24.147Z,958.52
2017-02-09T20:49:36.343Z,958.55
2017-02-09T20:51:48.817Z,958.51
2017-02-09T20:54:01.299Z,958.52
2017-02-09T20:56:14.264Z,958.51
2017-02-09T20:58:26.981Z,958.53
2017-02-09T21:00:39.481Z,958.52
2017-02-09T21:02:52.027Z,958.49
2017-02-09T21:05:04.324Z,958.52
2017-02-09T21:07:16.827Z,958.61
2017-02-09T21:09:29.196Z,958.61
2017-02-09T21:11:41.607Z,958.6
2017-02-09T21:13:54.076Z,958.57
2017-02-09T21:16:06.429Z,958.57
2017-02-09T21:18:18.717Z,958.53
2017-02-09T21:20:31.057Z,958.51
2017-02-09T21:22:43.489Z,958.54
2017-02-09T21:24:55.906Z,958.46
2017-02-09T21:27:08.371Z,958.46
2017-02-09T21:29:21.136Z,958.44
2017-02-09T21:31:33.446Z,958.41
2017-02-09T21:33:40.762Z,958.39
2017-02-09T21:35:53.249Z,958.42
2017-02-09T21:38:00.753Z,958.35
2017-02-09T21:40:08.085Z,958.41
2017-02-09T21:42:20.459Z,958.33
2017-02-09T21:44:32.662Z,958.27
2017-02-09T21:46:45.144Z,958.27
2017-02-09T21:48:57.495Z,958.19
2017-02-09T21:51:10.329Z,958.22
2017-02-09T21:53:22.792Z,958.2
2017-02-09T21:55:37.107Z,958.2
2017-02-09T21:57:49.399Z,958.2
2017-02-09T22:00:01.731Z,958.22
2017-02-09T22:02:14.165Z,958.23
2017-02-09T22:04:21.506Z,958.25
2017-02-09T22:06:28.907Z,958.22
2017-02-09T22:08:41.176Z,958.22
2017-02-09T22:10:54.449Z,958.19
2017-02-09T22:13:06.723Z,958.18
2017-02-09T22:15:19.169Z,958.19
2017-02-09T22:17:31.528Z,958.24
2017-02-09T22:19:43.800Z,958.21
2017-02-09T22:21:56.011Z,958.21
2017-02-09T22:24:08.298Z,958.2
2017-02-09T22:26:20.612Z,958.19
2017-02-09T22:28:32.888Z,958.16
2017-02-09T22:30:45.150Z,958.18
2017-02-09T22:32:57.645Z,958.16
2017-02-09T22:35:10.072Z,958.17
2017-02-09T22:37:22.319Z,958.16
2017-02-09T22:39:34.766Z,958.17
2017-02-09T22:41:47.302Z,958.14
2017-02-09T22:43:59.657Z,958.15
2017-02-09T22:46:12.061Z,958.15
2017-02-09T22:48:24.477Z,958.19
2017-02-09T22:50:31.685Z,958.11
2017-02-09T22:52:44.124Z,958.16
2017-02-09T22:54:56.453Z,958.14
2017-02-09T22:57:08.666Z,958.17
2017-02-09T22:59:20.881Z,958.15
2017-02-09T23:01:33.428Z,958.09
2017-02-09T23:03:46.009Z,958.09
2017-02-09T23:05:58.453Z,958.09
2017-02-09T23:08:10.898Z,958.1
2017-02-09T23:10:23.283Z,958.05
2017-02-09T23:12:35.601Z,958.05
2017-02-09T23:14:48.281Z,958.1
2017-02-09T23:17:00.700Z,958.04
2017-02-09T23:19:12.928Z,958.07
2017-02-09T23:21:25.260Z,958.05
2017-02-09T23:23:37.543Z,958.04
2017-02-09T23:25:49.918Z,958.02
2017-02-09T23:28:02.160Z,957.98
2017-02-09T23:30:14.538Z,957.94
2017-02-09T23:32:26.982Z,957.93
2017-02-09T23:34:39.184Z,957.91
2017-02-09T23:36:41.511Z,957.86
2017-02-09T23:38:53.696Z,957.82
2017-02-09T23:41:06.035Z,957.87
2017-02-09T23:43:18.282Z,957.84
2017-02-09T23:45:30.545Z,957.84
2017-02-09T23:47:42.834Z,957.78
2017-02-09T23:49:55.334Z,957.74
2017-02-09T23:52:07.809Z,957.75
2017-02-09T23:54:20.088Z,957.73
2017-02-09T23:56:32.381Z,957.76
2017-02-09T23:58:44.574Z,957.72
